createdAt,value
2023-03-13T00:00:31.749Z,-3.14
2023-03-13T00:05:41.519Z,-3.21
2023-03-13T00:10:49.893Z,-3.26
2023-03-13T00:16:06.845Z,-3.31
2023-03-13T00:21:15.143Z,-3.35
2023-03-13T00:26:25.469Z,-3.36
2023-03-13T00:31:34.490Z,-3.34
2023-03-13T00:36:43.316Z,-3.20
2023-03-13T00:41:51.808Z,-2.95
2023-03-13T00:46:59.568Z,-2.80
2023-03-13T00:52:08.496Z,-2.71
2023-03-13T00:57:16.706Z,-2.65
2023-03-13T01:02:25.265Z,-2.63
2023-03-13T01:07:36.436Z,-2.62
2023-03-13T01:12:44.951Z,-2.64
2023-03-13T01:17:53.296Z,-2.68
2023-03-13T01:23:01.088Z,-2.72
2023-03-13T01:28:09.501Z,-2.74
2023-03-13T01:33:17.206Z,-2.77
2023-03-13T01:38:24.474Z,-2.80
2023-03-13T01:43:34.807Z,-2.84
2023-03-13T01:48:48.995Z,-2.77
2023-03-13T01:54:04.615Z,-2.63
2023-03-13T01:59:16.288Z,-2.57
2023-03-13T02:04:25.424Z,-2.56
2023-03-13T02:09:36.328Z,-2.59
2023-03-13T02:14:48.045Z,-2.62
2023-03-13T02:19:57.550Z,-2.67
2023-03-13T02:25:12.708Z,-2.71
2023-03-13T02:30:22.986Z,-2.77
2023-03-13T02:35:32.311Z,-2.84
2023-03-13T02:40:45.856Z,-2.91
2023-03-13T02:46:08.058Z,-2.98
2023-03-13T02:51:24.732Z,-3.02
2023-03-13T02:56:36.490Z,-2.96
2023-03-13T03:01:44.214Z,-2.82
2023-03-13T03:06:52.356Z,-2.74
2023-03-13T03:12:00.208Z,-2.73
2023-03-13T03:17:08.983Z,-2.75
2023-03-13T03:22:16.700Z,-2.79
2023-03-13T03:27:24.519Z,-2.82
2023-03-13T03:32:34.225Z,-2.86
2023-03-13T03:37:42.470Z,-2.89
2023-03-13T03:42:50.913Z,-2.90
2023-03-13T03:48:02.243Z,-2.91
2023-03-13T03:53:11.892Z,-2.80
2023-03-13T03:58:22.621Z,-2.62
2023-03-13T04:03:41.898Z,-2.47
2023-03-13T04:08:50.613Z,-2.37
2023-03-13T04:14:01.429Z,-2.29
2023-03-13T04:19:09.534Z,-2.22
2023-03-13T04:24:17.098Z,-2.16
2023-03-13T04:29:25.536Z,-2.08
2023-03-13T04:34:50.268Z,-1.95
2023-03-13T04:40:13.051Z,-1.75
2023-03-13T04:45:37.426Z,-1.60
2023-03-13T04:51:04.072Z,-1.50
2023-03-13T04:56:43.131Z,-1.44
2023-03-13T05:02:28.074Z,-1.41
2023-03-13T05:07:55.295Z,-1.39
2023-03-13T05:13:38.998Z,-1.35
2023-03-13T05:18:57.679Z,-1.30
2023-03-13T05:24:42.211Z,-1.23
2023-03-13T05:30:09.744Z,-1.16
2023-03-13T05:35:35.613Z,-1.08
2023-03-13T05:41:02.391Z,-1.01
2023-03-13T05:46:29.158Z,-0.92
2023-03-13T05:51:48.922Z,-0.85
2023-03-13T05:57:16.651Z,-0.77
2023-03-13T06:02:44.355Z,-0.70
2023-03-13T06:07:57.590Z,-0.65
2023-03-13T06:13:18.931Z,-0.60
2023-03-13T06:18:33.782Z,-0.52
2023-03-13T06:23:42.747Z,-0.46
2023-03-13T06:28:52.819Z,-0.40
2023-03-13T06:34:01.246Z,-0.33
2023-03-13T06:39:08.763Z,-0.26
2023-03-13T06:44:16.692Z,-0.19
2023-03-13T06:49:25.198Z,-0.11
2023-03-13T06:54:33.869Z,-0.04
2023-03-13T06:59:42.513Z,0.03
2023-03-13T07:04:51.199Z,0.10
2023-03-13T07:10:00.235Z,0.22
2023-03-13T07:15:10.348Z,0.32
2023-03-13T07:20:19.501Z,0.43
2023-03-13T07:25:28.230Z,0.53
2023-03-13T07:30:36.610Z,0.63
2023-03-13T07:35:49.791Z,0.76
2023-03-13T07:40:59.831Z,0.91
2023-03-13T07:46:10.139Z,1.06
2023-03-13T07:51:25.268Z,1.21
2023-03-13T07:56:39.100Z,1.36
2023-03-13T08:01:47.275Z,1.50
2023-03-13T08:06:55.774Z,1.64
2023-03-13T08:12:04.178Z,1.77
2023-03-13T08:17:12.683Z,1.91
2023-03-13T08:22:21.196Z,2.05
2023-03-13T08:27:31.084Z,2.16
2023-03-13T08:32:40.269Z,2.28
2023-03-13T08:37:48.631Z,2.38
2023-03-13T08:42:57.580Z,2.48
2023-03-13T08:48:05.549Z,2.56
2023-03-13T08:53:14.191Z,2.64
2023-03-13T08:58:21.754Z,2.69
2023-03-13T09:03:30.496Z,2.76
2023-03-13T09:08:39.898Z,2.80
2023-03-13T09:13:49.567Z,2.81
2023-03-13T09:19:00.258Z,2.81
2023-03-13T09:24:08.441Z,2.80
2023-03-13T09:29:16.046Z,2.79
2023-03-13T09:34:25.937Z,2.78
2023-03-13T09:39:34.278Z,2.78
2023-03-13T09:44:46.403Z,2.78
2023-03-13T09:49:56.069Z,2.77
2023-03-13T09:55:16.249Z,2.75
2023-03-13T10:00:29.856Z,2.74
2023-03-13T10:05:39.561Z,2.76
2023-03-13T10:10:52.372Z,2.76
2023-03-13T10:16:03.732Z,2.78
2023-03-13T10:21:21.555Z,2.80
2023-03-13T10:26:32.354Z,2.82
2023-03-13T10:31:41.514Z,2.78
2023-03-13T10:36:51.450Z,2.87
2023-03-13T10:42:12.180Z,2.89
2023-03-13T10:47:21.575Z,2.91
2023-03-13T10:52:44.084Z,2.94
2023-03-13T10:57:57.176Z,2.95
2023-03-13T11:03:08.142Z,2.98
2023-03-13T11:08:36.966Z,3.01
2023-03-13T11:13:46.390Z,3.06
2023-03-13T11:19:15.586Z,3.10
2023-03-13T11:24:29.907Z,3.17
2023-03-13T11:29:49.384Z,3.21
2023-03-13T11:35:00.986Z,3.25
2023-03-13T11:40:21.196Z,3.29
2023-03-13T11:45:59.615Z,3.33
2023-03-13T11:51:20.627Z,3.37
2023-03-13T11:56:37.970Z,3.43
2023-03-13T12:01:53.646Z,3.47
2023-03-13T12:07:07.332Z,3.54
2023-03-13T12:12:27.919Z,3.58
2023-03-13T12:17:37.867Z,3.62
2023-03-13T12:22:54.236Z,3.66
2023-03-13T12:28:18.239Z,3.71
2023-03-13T12:33:33.653Z,3.77
2023-03-13T12:38:48.432Z,3.82
2023-03-13T12:44:08.386Z,3.88
2023-03-13T12:50:06.528Z,3.94
2023-03-13T12:55:53.640Z,4.01
2023-03-13T13:01:07.513Z,4.10
2023-03-13T13:06:18.082Z,4.16
2023-03-13T13:11:50.820Z,4.22
2023-03-13T13:17:06.899Z,4.29
2023-03-13T13:22:52.805Z,4.36
2023-03-13T13:28:26.581Z,4.42
2023-03-13T13:33:42.854Z,4.48
2023-03-13T13:38:51.948Z,4.53
2023-03-13T13:44:36.366Z,4.58
2023-03-13T13:49:58.811Z,4.64
2023-03-13T13:55:06.542Z,4.69
2023-03-13T14:00:24.516Z,4.75
2023-03-13T14:05:34.871Z,4.82
2023-03-13T14:10:44.645Z,4.99
2023-03-13T14:15:54.521Z,5.23
2023-03-13T14:21:03.847Z,5.48
2023-03-13T14:26:18.289Z,5.72
2023-03-13T14:31:31.860Z,5.89
2023-03-13T14:36:57.090Z,6.00
2023-03-13T14:42:14.923Z,6.17
2023-03-13T14:47:27.050Z,6.33
2023-03-13T14:52:35.854Z,6.41
2023-03-13T14:57:59.905Z,6.43
2023-03-13T15:03:28.966Z,6.53
2023-03-13T15:08:38.968Z,6.66
2023-03-13T15:13:47.960Z,6.75
2023-03-13T15:18:57.183Z,6.76
2023-03-13T15:24:14.277Z,6.83
2023-03-13T15:29:21.777Z,6.89
2023-03-13T15:34:30.842Z,6.94
2023-03-13T15:39:38.899Z,7.00
2023-03-13T15:44:47.234Z,7.09
2023-03-13T15:49:54.588Z,7.13
2023-03-13T15:55:03.612Z,7.13
2023-03-13T16:00:19.819Z,7.21
2023-03-13T16:05:29.538Z,7.31
2023-03-13T16:10:38.782Z,7.34
2023-03-13T16:15:47.806Z,7.33
2023-03-13T16:20:55.551Z,7.39
2023-03-13T16:26:03.236Z,7.47
2023-03-13T16:31:17.481Z,7.48
2023-03-13T16:36:29.236Z,7.46
2023-03-13T16:41:37.529Z,7.50
2023-03-13T16:47:04.229Z,7.58
2023-03-13T16:52:18.319Z,7.59
2023-03-13T16:57:27.882Z,7.66
2023-03-13T17:02:38.111Z,7.77
2023-03-13T17:07:48.323Z,7.78
2023-03-13T17:12:55.821Z,7.77
2023-03-13T17:18:04.702Z,7.81
2023-03-13T17:23:13.460Z,7.90
2023-03-13T17:28:21.293Z,7.92
2023-03-13T17:33:28.915Z,7.91
2023-03-13T17:38:37.566Z,7.97
2023-03-13T17:43:46.252Z,8.06
2023-03-13T17:48:55.687Z,8.08
2023-03-13T17:54:05.026Z,8.06
2023-03-13T17:59:16.231Z,8.10
2023-03-13T18:04:25.622Z,8.15
2023-03-13T18:09:34.303Z,8.19
2023-03-13T18:14:42.633Z,8.25
2023-03-13T18:19:51.567Z,8.29
2023-03-13T18:24:59.708Z,8.34
2023-03-13T18:30:17.533Z,8.38
2023-03-13T18:35:26.329Z,8.44
2023-03-13T18:40:35.499Z,8.50
2023-03-13T18:45:44.360Z,8.55
2023-03-13T18:50:52.597Z,8.60
2023-03-13T18:56:04.078Z,8.65
2023-03-13T19:01:15.452Z,8.70
2023-03-13T19:06:26.914Z,8.74
2023-03-13T19:11:34.958Z,8.78
2023-03-13T19:16:48.522Z,8.81
2023-03-13T19:21:57.867Z,8.85
2023-03-13T19:27:07.014Z,8.89
2023-03-13T19:32:18.825Z,8.94
2023-03-13T19:37:27.167Z,8.98
2023-03-13T19:42:35.925Z,9.02
2023-03-13T19:47:44.468Z,9.03
2023-03-13T19:52:52.749Z,9.11
2023-03-13T19:58:02.670Z,9.14
2023-03-13T20:03:11.392Z,9.18
2023-03-13T20:08:20.136Z,9.20
2023-03-13T20:13:29.037Z,9.23
2023-03-13T20:18:37.531Z,9.23
2023-03-13T20:23:46.972Z,9.18
2023-03-13T20:28:56.361Z,9.11
2023-03-13T20:34:05.571Z,9.10
2023-03-13T20:39:14.061Z,9.12
2023-03-13T20:44:22.570Z,9.08
2023-03-13T20:49:30.992Z,8.99
2023-03-13T20:54:39.367Z,8.97
2023-03-13T20:59:48.039Z,8.98
2023-03-13T21:04:55.267Z,8.95
2023-03-13T21:10:05.073Z,8.92
2023-03-13T21:15:15.654Z,8.98
2023-03-13T21:20:24.331Z,9.04
2023-03-13T21:25:34.181Z,9.01
2023-03-13T21:30:42.868Z,8.96
2023-03-13T21:35:53.208Z,8.96
2023-03-13T21:41:02.221Z,8.98
2023-03-13T21:46:14.506Z,8.96
2023-03-13T21:51:20.763Z,8.91
2023-03-13T21:56:28.241Z,8.92
2023-03-13T22:01:36.422Z,8.94
2023-03-13T22:06:44.863Z,8.91
2023-03-13T22:11:53.061Z,8.85
2023-03-13T22:17:01.243Z,8.87
2023-03-13T22:22:09.760Z,8.88
2023-03-13T22:27:19.854Z,8.82
2023-03-13T22:32:28.363Z,8.78
2023-03-13T22:37:38.159Z,8.76
2023-03-13T22:42:46.633Z,8.73
2023-03-13T22:47:54.463Z,8.71
2023-03-13T22:53:02.026Z,8.70
2023-03-13T22:58:10.269Z,8.68
2023-03-13T23:03:18.822Z,8.66
2023-03-13T23:08:27.264Z,8.65
2023-03-13T23:13:35.563Z,8.64
2023-03-13T23:18:45.261Z,8.62
2023-03-13T23:23:56.845Z,8.61
2023-03-13T23:29:05.274Z,8.60
2023-03-13T23:34:12.597Z,8.59
2023-03-13T23:39:20.610Z,8.60
2023-03-13T23:44:28.168Z,8.61
2023-03-13T23:49:35.740Z,8.63
2023-03-13T23:54:44.281Z,8.66
2023-03-13T23:59:52.745Z,8.69
